Livingston, California
Current Conditions -  °F | °C
As of 1:45 PM on Friday 24 Oct 2014 (Local Time) from KMER Reporting Station
Clear Clear  
Wind Chill: 82°   Ceiling: Unl
Heat Index: 82°   Visibility: 7mi
Dew Point: 48°   Wind: 9mph
Humidity: 30%   Direction: 200°SSW
Pressure: 29.9"   Gusts: NA
Location:  37.38°N, 120.72°W
Report Text: KMER 242045Z 20008KT 7SM SKC 28/09 A2990
Loading
Personal Weather Stations






























Interactive Weather Map
Tropical Storm Tracking
New forecast layout! Learn more

10-Day Weather Forecast

Advertisements
Track Severe Weather on mobile